Sosnowiec, Poland
Current Conditions -  °F | °C
As of 2:30 AM on Tuesday 23 Dec 2014 (Local Time) from EPKT Reporting Station
Broken Clouds Broken Clouds  
Wind Chill: 41°   Ceiling: 2300
Heat Index: 48°   Visibility: 6mi
Dew Point: 39°   Wind: 21mph
Humidity: 71%   Direction: 240°WSW
Pressure: 29.85"   Gusts: NA
Location:  50.28°N, 19.12°E
Report Text: EPKT 230030Z 24018KT 9999 BKN023 09/04 Q1011
Loading
Personal Weather Stations






























Interactive Weather Map New forecast layout! Learn more

10-Day Weather Forecast

Advertisements
Track Severe Weather on mobile